Time;durP1;ratioP1;P1;durP2;ratioP2;P2;SDS_P1;SDS_P2;PMS_P1;PMS_P2;Temp;Humidity;BMP_temperature;BMP_pressure;BME280_temperature;BME280_humidity;BME280_pressure;Samples;Min_cycle;Max_cycle;Signal;HPM_P1;HPM_P2
2022/02/04 00:07:07;;;;;;;4.17;2.73;;;;;;;;;;5079700;28;20236;-66
2022/02/04 00:20:54;;;;;;;3.20;2.90;;;;;;;;;;5068152;28;20233;-66
2022/02/04 00:23:27;;;;;;;3.07;2.80;;;;;;;;;;5081187;28;20196;-66
2022/02/04 00:26:15;;;;;;;3.97;3.47;;;;;;;;;;5080257;28;20303;-65
2022/02/04 00:31:37;;;;;;;3.50;3.20;;;;;;;;;;5078453;28;20822;-66
2022/02/04 00:34:16;;;;;;;3.43;3.13;;;;;;;;;;5087536;28;20587;-65
2022/02/04 00:37:18;;;;;;;3.70;3.40;;;;;;;;;;5088148;28;20204;-65
2022/02/04 00:39:56;;;;;;;3.77;3.47;;;;;;;;;;5083295;28;20224;-65
2022/02/04 00:42:28;;;;;;;3.67;3.37;;;;;;;;;;5068480;28;20232;-66
2022/02/04 00:45:15;;;;;;;5.20;3.37;;;;;;;;;;5085778;28;20622;-65
2022/02/04 00:49:04;;;;;;;4.40;4.00;;;;;;;;;;5070092;28;20211;-65
2022/02/04 00:57:06;;;;;;;4.03;3.70;;;;;;;;;;5097372;28;20751;-65
2022/02/04 01:13:38;;;;;;;4.13;3.73;;;;;;;;;;5066936;28;20228;-65
2022/02/04 01:27:18;;;;;;;4.03;3.67;;;;;;;;;;5082200;28;20431;-66
2022/02/04 01:30:04;;;;;;;4.50;4.10;;;;;;;;;;5071972;28;20235;-65
2022/02/04 01:32:39;;;;;;;4.33;3.93;;;;;;;;;;5073172;28;20204;-66
2022/02/04 01:35:09;;;;;;;3.97;3.57;;;;;;;;;;5085195;28;20365;-65
2022/02/04 01:37:39;;;;;;;3.80;3.07;;;;;;;;;;5088006;28;20212;-66
2022/02/04 01:40:08;;;;;;;3.70;3.40;;;;;;;;;;5085104;28;20228;-66
2022/02/04 01:42:43;;;;;;;3.80;3.50;;;;;;;;;;5083739;28;20270;-66
2022/02/04 01:45:12;;;;;;;4.50;4.10;;;;;;;;;;5088807;28;20611;-65
2022/02/04 01:48:05;;;;;;;4.33;3.93;;;;;;;;;;5086689;28;20619;-65
2022/02/04 01:50:34;;;;;;;4.50;4.10;;;;;;;;;;5081003;28;20602;-65
2022/02/04 01:53:04;;;;;;;4.17;3.53;;;;;;;;;;5085645;28;20250;-65
2022/02/04 01:55:50;;;;;;;3.93;3.63;;;;;;;;;;5085772;28;20205;-65
2022/02/04 01:58:22;;;;;;;4.40;4.00;;;;;;;;;;5087312;28;20201;-65
2022/02/04 02:00:57;;;;;;;4.20;3.80;;;;;;;;;;5084992;28;20224;-66
2022/02/04 02:03:31;;;;;;;4.00;3.60;;;;;;;;;;5083961;28;20326;-66
2022/02/04 02:06:08;;;;;;;4.43;4.03;;;;;;;;;;5081051;28;20216;-66
2022/02/04 02:08:40;;;;;;;3.77;3.33;;;;;;;;;;5086194;28;20212;-65
2022/02/04 02:11:11;;;;;;;3.90;3.50;;;;;;;;;;5082941;28;20194;-65
2022/02/04 02:13:49;;;;;;;4.03;3.73;;;;;;;;;;5088461;28;20266;-65
2022/02/04 02:36:39;;;;;;;3.63;3.33;;;;;;;;;;5094645;28;20215;-65
2022/02/04 02:56:56;;;;;;;3.83;3.43;;;;;;;;;;5088049;28;20757;-65
2022/02/04 02:59:22;;;;;;;3.97;3.63;;;;;;;;;;5070552;28;20662;-65
2022/02/04 03:01:52;;;;;;;3.40;3.10;;;;;;;;;;5082391;28;20220;-65
2022/02/04 03:04:25;;;;;;;3.27;2.97;;;;;;;;;;5086969;28;20197;-65
2022/02/04 03:07:07;;;;;;;3.57;3.27;;;;;;;;;;5081402;28;20205;-65
2022/02/04 03:09:39;;;;;;;3.77;3.47;;;;;;;;;;5084310;28;20255;-65
2022/02/04 03:12:11;;;;;;;3.80;3.30;;;;;;;;;;5086765;28;20197;-65
2022/02/04 03:14:41;;;;;;;3.47;3.17;;;;;;;;;;5080931;28;20205;-65
2022/02/04 03:17:13;;;;;;;3.80;2.80;;;;;;;;;;5080845;28;20201;-65
2022/02/04 03:19:53;;;;;;;3.43;3.07;;;;;;;;;;5084044;28;20196;-65
2022/02/04 03:22:25;;;;;;;3.20;2.90;;;;;;;;;;5084838;28;20213;-65
2022/02/04 03:24:59;;;;;;;3.33;3.07;;;;;;;;;;5086139;28;20208;-65
2022/02/04 03:27:41;;;;;;;3.20;2.90;;;;;;;;;;5083775;28;20196;-66
2022/02/04 03:30:18;;;;;;;3.30;3.00;;;;;;;;;;5083025;28;20220;-66
2022/02/04 03:32:52;;;;;;;3.50;3.03;;;;;;;;;;5070204;28;20192;-65
2022/02/04 03:35:25;;;;;;;3.27;2.97;;;;;;;;;;5087053;28;20215;-65
2022/02/04 03:37:57;;;;;;;2.73;2.53;;;;;;;;;;5079853;28;20657;-66
2022/02/04 03:40:29;;;;;;;2.80;2.60;;;;;;;;;;5071716;28;20245;-65
2022/02/04 03:43:00;;;;;;;3.43;3.13;;;;;;;;;;5072833;28;20213;-65
2022/02/04 03:45:32;;;;;;;3.73;3.13;;;;;;;;;;5082292;28;20721;-65
2022/02/04 03:48:04;;;;;;;2.90;2.70;;;;;;;;;;5068125;28;20645;-66
2022/02/04 03:50:34;;;;;;;3.07;2.87;;;;;;;;;;5074503;28;20189;-65
2022/02/04 03:53:03;;;;;;;3.20;2.90;;;;;;;;;;5070286;28;20201;-65
2022/02/04 03:55:32;;;;;;;2.70;2.50;;;;;;;;;;5063340;28;20275;-65
2022/02/04 03:58:01;;;;;;;3.27;2.80;;;;;;;;;;5084273;28;20203;-65
2022/02/04 04:00:33;;;;;;;2.80;2.57;;;;;;;;;;5079326;28;20221;-65
2022/02/04 04:03:05;;;;;;;2.70;2.50;;;;;;;;;;5084073;28;20211;-65
2022/02/04 04:05:38;;;;;;;3.97;2.33;;;;;;;;;;5082177;28;20874;-65
2022/02/04 04:08:07;;;;;;;2.80;2.60;;;;;;;;;;5082942;28;20220;-65
2022/02/04 04:10:39;;;;;;;3.17;2.83;;;;;;;;;;5080199;28;20197;-65
2022/02/04 04:13:14;;;;;;;2.90;2.70;;;;;;;;;;5083482;28;20212;-65
2022/02/04 04:15:45;;;;;;;2.93;2.70;;;;;;;;;;5080822;28;20275;-65
2022/02/04 04:18:17;;;;;;;2.97;2.60;;;;;;;;;;5083518;28;20211;-65
2022/02/04 04:20:50;;;;;;;2.77;2.57;;;;;;;;;;5069338;28;20224;-65
2022/02/04 04:23:18;;;;;;;2.70;2.50;;;;;;;;;;5083284;28;20232;-65
2022/02/04 04:25:48;;;;;;;2.53;2.33;;;;;;;;;;5073263;28;20221;-65
2022/02/04 04:28:20;;;;;;;3.37;2.40;;;;;;;;;;5081858;28;20186;-65
2022/02/04 04:30:49;;;;;;;3.10;2.80;;;;;;;;;;5076578;28;20208;-65
2022/02/04 04:33:20;;;;;;;2.57;2.37;;;;;;;;;;5086434;28;20315;-65
2022/02/04 04:35:52;;;;;;;3.30;2.90;;;;;;;;;;5084087;28;20578;-65
2022/02/04 04:38:33;;;;;;;2.47;2.27;;;;;;;;;;5089509;28;20213;-65
2022/02/04 04:41:51;;;;;;;2.80;2.60;;;;;;;;;;5068978;28;20227;-65
2022/02/04 05:29:31;;;;;;;2.77;2.03;;;;;;;;;;5088611;28;20221;-63
2022/02/04 05:32:02;;;;;;;2.37;1.97;;;;;;;;;;5082899;28;20205;-63
2022/02/04 05:34:32;;;;;;;2.30;2.10;;;;;;;;;;5083040;28;20204;-63
2022/02/04 05:37:07;;;;;;;2.63;2.27;;;;;;;;;;5073086;28;20201;-63
2022/02/04 05:39:53;;;;;;;2.20;1.83;;;;;;;;;;5079613;28;20197;-63
2022/02/04 05:42:28;;;;;;;2.00;1.90;;;;;;;;;;5082469;28;20290;-62
2022/02/04 05:45:03;;;;;;;1.80;1.70;;;;;;;;;;5086854;28;20223;-64
2022/02/04 05:47:37;;;;;;;2.00;1.80;;;;;;;;;;5072323;28;20197;-64
2022/02/04 05:50:29;;;;;;;2.13;2.03;;;;;;;;;;5082856;28;20209;-64
2022/02/04 05:53:15;;;;;;;2.10;1.53;;;;;;;;;;5085399;28;20201;-64
2022/02/04 06:04:52;;;;;;;1.50;1.40;;;;;;;;;;5008549;28;20223;-63
2022/02/04 06:07:36;;;;;;;2.40;2.23;;;;;;;;;;5017498;28;20645;-64
2022/02/04 06:10:37;;;;;;;1.53;1.40;;;;;;;;;;5025492;28;20198;-64
2022/02/04 06:24:25;;;;;;;1.73;1.63;;;;;;;;;;5021461;28;20213;-64
2022/02/04 06:26:55;;;;;;;1.83;1.73;;;;;;;;;;5010149;28;20207;-64
2022/02/04 06:29:28;;;;;;;1.57;1.47;;;;;;;;;;5016404;28;20499;-64
2022/02/04 06:32:01;;;;;;;1.80;1.70;;;;;;;;;;5014955;28;20207;-64
2022/02/04 06:34:33;;;;;;;4.00;2.23;;;;;;;;;;5039520;28;20282;-63
2022/02/04 06:37:05;;;;;;;5.07;2.60;;;;;;;;;;5063945;28;20198;-63
2022/02/04 06:39:36;;;;;;;8.67;2.93;;;;;;;;;;5062473;28;20210;-64
2022/02/04 06:42:08;;;;;;;7.53;3.17;;;;;;;;;;5061939;28;20739;-64
2022/02/04 06:44:40;;;;;;;6.80;3.30;;;;;;;;;;5065025;28;20194;-64
2022/02/04 06:47:08;;;;;;;14.13;4.73;;;;;;;;;;5054459;28;20259;-63
2022/02/04 06:49:37;;;;;;;16.53;5.30;;;;;;;;;;5066149;28;20216;-64
2022/02/04 06:52:08;;;;;;;21.83;5.83;;;;;;;;;;5066286;28;20235;-63
2022/02/04 06:54:36;;;;;;;26.48;7.50;;;;;;;;;;5067507;28;20499;-64
2022/02/04 06:57:04;;;;;;;17.87;6.40;;;;;;;;;;5083763;28;20737;-64
2022/02/04 06:59:39;;;;;;;19.43;6.43;;;;;;;;;;5072707;28;20213;-64
2022/02/04 07:02:08;;;;;;;18.80;5.67;;;;;;;;;;5082651;28;20545;-66
2022/02/04 07:04:40;;;;;;;19.57;6.00;;;;;;;;;;5071590;28;20200;-66
2022/02/04 07:07:10;;;;;;;12.07;4.50;;;;;;;;;;5103846;28;20291;-67
2022/02/04 07:09:54;;;;;;;14.63;5.03;;;;;;;;;;5086689;28;20200;-67
2022/02/04 07:12:34;;;;;;;18.10;4.57;;;;;;;;;;5095607;28;20192;-66
2022/02/04 07:21:18;;;;;;;11.93;4.33;;;;;;;;;;5087852;28;20319;-64
2022/02/04 07:24:03;;;;;;;11.57;4.17;;;;;;;;;;5086505;28;20266;-64
2022/02/04 07:26:35;;;;;;;11.90;4.50;;;;;;;;;;5079529;28;20234;-63
2022/02/04 07:29:09;;;;;;;7.97;3.63;;;;;;;;;;5083600;28;20201;-64
2022/02/04 07:31:41;;;;;;;12.00;3.57;;;;;;;;;;5084637;28;20584;-68
2022/02/04 07:42:37;;;;;;;9.80;2.90;;;;;;;;;;5085923;28;20260;-64
2022/02/04 07:45:07;;;;;;;6.70;3.10;;;;;;;;;;5066484;28;20209;-65
2022/02/04 07:47:37;;;;;;;7.33;3.20;;;;;;;;;;5076196;28;20320;-68
2022/02/04 07:50:10;;;;;;;6.60;2.67;;;;;;;;;;5084674;28;20201;-68
2022/02/04 07:52:42;;;;;;;5.33;2.53;;;;;;;;;;5071564;28;20204;-68
2022/02/04 07:55:12;;;;;;;3.97;2.47;;;;;;;;;;5083243;28;20262;-71
2022/02/04 07:57:56;;;;;;;3.40;2.20;;;;;;;;;;5082902;28;20564;-70
2022/02/04 08:00:27;;;;;;;6.60;2.70;;;;;;;;;;5067909;28;20527;-67
2022/02/04 08:03:05;;;;;;;3.80;2.00;;;;;;;;;;5078532;28;20232;-68
2022/02/04 08:05:41;;;;;;;5.03;2.43;;;;;;;;;;5081447;28;20220;-71
2022/02/04 08:08:39;;;;;;;3.50;2.00;;;;;;;;;;5081991;28;20209;-70
2022/02/04 08:11:23;;;;;;;5.07;2.03;;;;;;;;;;5077587;28;20208;-71
2022/02/04 08:14:12;;;;;;;5.57;2.33;;;;;;;;;;5085785;28;20200;-71
2022/02/04 08:23:16;;;;;;;3.10;1.57;;;;;;;;;;5086885;28;20854;-70
2022/02/04 08:25:31;;;;;;;2.73;1.80;;;;;;;;;;5060687;28;20204;-65
2022/02/04 08:34:11;;;;;;;3.13;1.60;;;;;;;;;;5081476;28;20228;-68
2022/02/04 08:48:16;;;;;;;3.50;1.80;;;;;;;;;;5081058;28;20207;-63
2022/02/04 08:56:38;;;;;;;2.63;1.70;;;;;;;;;;5080734;28;20216;-66
2022/02/04 08:59:20;;;;;;;2.13;1.53;;;;;;;;;;5081143;28;20280;-66
2022/02/04 09:02:18;;;;;;;1.73;1.63;;;;;;;;;;5085793;28;20245;-64
2022/02/04 09:04:51;;;;;;;1.50;1.30;;;;;;;;;;5083868;28;20205;-64
2022/02/04 09:07:26;;;;;;;1.50;1.40;;;;;;;;;;5076868;28;20735;-64
2022/02/04 09:10:09;;;;;;;1.63;1.50;;;;;;;;;;5084126;28;20243;-64
2022/02/04 09:23:38;;;;;;;2.40;1.57;;;;;;;;;;5086931;28;20197;-66
2022/02/04 09:26:08;;;;;;;1.53;1.40;;;;;;;;;;5090037;28;20193;-63
2022/02/04 09:28:41;;;;;;;1.50;1.40;;;;;;;;;;5088218;28;20213;-63
2022/02/04 09:31:17;;;;;;;1.20;1.10;;;;;;;;;;5073032;28;20586;-63
2022/02/04 09:33:49;;;;;;;1.33;1.07;;;;;;;;;;5077560;28;20749;-63
2022/02/04 09:36:21;;;;;;;1.77;1.30;;;;;;;;;;5089614;28;20193;-66
2022/02/04 09:38:53;;;;;;;3.67;1.50;;;;;;;;;;5088881;28;20208;-66
2022/02/04 09:41:23;;;;;;;1.73;1.50;;;;;;;;;;5088192;28;20212;-66
2022/02/04 09:43:54;;;;;;;1.33;1.13;;;;;;;;;;5074928;28;20232;-66
2022/02/04 09:46:29;;;;;;;2.20;1.60;;;;;;;;;;5087655;28;20743;-66
2022/02/04 09:49:06;;;;;;;3.07;1.60;;;;;;;;;;5087082;28;20208;-66
2022/02/04 10:04:16;;;;;;;3.77;1.50;;;;;;;;;;5085910;28;20215;-64
2022/02/04 10:12:17;;;;;;;2.03;1.17;;;;;;;;;;5087799;28;20197;-63
2022/02/04 10:15:08;;;;;;;2.97;1.37;;;;;;;;;;5076109;28;20306;-64
2022/02/04 10:17:58;;;;;;;3.33;1.23;;;;;;;;;;5087863;28;20197;-64
2022/02/04 10:20:28;;;;;;;2.37;1.20;;;;;;;;;;5082876;28;20213;-65
2022/02/04 10:22:58;;;;;;;2.10;1.40;;;;;;;;;;5088675;28;20304;-65
2022/02/04 10:25:35;;;;;;;2.10;1.40;;;;;;;;;;5088843;28;20195;-67
2022/02/04 10:28:25;;;;;;;1.60;1.23;;;;;;;;;;5091738;28;20196;-67
2022/02/04 10:31:11;;;;;;;3.47;1.50;;;;;;;;;;5086690;28;20515;-69
2022/02/04 10:34:00;;;;;;;1.60;1.10;;;;;;;;;;5096869;28;20204;-68
2022/02/04 10:36:54;;;;;;;1.40;1.00;;;;;;;;;;5087274;28;20645;-68
2022/02/04 10:42:56;;;;;;;2.60;0.93;;;;;;;;;;5077397;28;20229;-68
2022/02/04 10:45:49;;;;;;;2.00;0.90;;;;;;;;;;5074262;28;20203;-66
2022/02/04 10:54:48;;;;;;;1.43;1.00;;;;;;;;;;5102907;28;20735;-68
2022/02/04 10:57:22;;;;;;;1.33;1.10;;;;;;;;;;5069320;28;20266;-64
2022/02/04 11:00:17;;;;;;;1.53;1.00;;;;;;;;;;5090840;28;20208;-66
2022/02/04 11:03:14;;;;;;;1.20;1.10;;;;;;;;;;5093293;28;20309;-65
2022/02/04 11:06:30;;;;;;;1.43;1.10;;;;;;;;;;5087492;28;20232;-65
2022/02/04 11:47:52;;;;;;;1.10;1.00;;;;;;;;;;5076815;28;20262;-63
2022/02/04 11:51:00;;;;;;;1.40;0.90;;;;;;;;;;5072485;28;20212;-63
2022/02/04 11:52:45;;;;;;;1.10;1.00;;;;;;;;;;5080558;28;20571;-63
2022/02/04 11:55:32;;;;;;;1.00;0.90;;;;;;;;;;5079990;28;20251;-62
2022/02/04 11:58:04;;;;;;;1.63;1.10;;;;;;;;;;5083356;28;20205;-62
2022/02/04 12:00:42;;;;;;;1.00;0.90;;;;;;;;;;5067585;28;20558;-63
2022/02/04 12:03:43;;;;;;;1.23;1.13;;;;;;;;;;5079608;28;20657;-63
2022/02/04 12:06:29;;;;;;;1.20;1.10;;;;;;;;;;5066847;28;20209;-63
2022/02/04 12:09:12;;;;;;;2.20;1.10;;;;;;;;;;5067744;28;20213;-65
2022/02/04 12:11:44;;;;;;;1.30;0.80;;;;;;;;;;5069858;28;20197;-68
2022/02/04 12:14:14;;;;;;;0.83;0.80;;;;;;;;;;5084923;28;20200;-67
2022/02/04 12:17:03;;;;;;;0.83;0.80;;;;;;;;;;5086215;28;20276;-66
2022/02/04 12:19:40;;;;;;;1.10;1.00;;;;;;;;;;5080386;28;20615;-67
2022/02/04 12:22:10;;;;;;;0.90;0.77;;;;;;;;;;5070598;28;20199;-66
2022/02/04 12:24:42;;;;;;;0.70;0.70;;;;;;;;;;5077772;28;20216;-67
2022/02/04 12:27:35;;;;;;;0.90;0.70;;;;;;;;;;5080575;28;20213;-67
2022/02/04 12:30:31;;;;;;;1.93;0.80;;;;;;;;;;5094697;28;20210;-65
2022/02/04 12:33:03;;;;;;;2.17;0.60;;;;;;;;;;5082139;28;20207;-68
2022/02/04 12:35:37;;;;;;;1.33;0.80;;;;;;;;;;5096836;28;20240;-65
2022/02/04 12:38:07;;;;;;;1.33;0.80;;;;;;;;;;5086310;28;20212;-65
2022/02/04 12:40:37;;;;;;;0.70;0.70;;;;;;;;;;5086973;28;20206;-67
2022/02/04 12:43:19;;;;;;;0.90;0.70;;;;;;;;;;5079109;28;20480;-68
2022/02/04 12:45:53;;;;;;;0.70;0.70;;;;;;;;;;5095560;28;20203;-66
2022/02/04 12:48:23;;;;;;;0.70;0.70;;;;;;;;;;5090286;28;20293;-67
2022/02/04 12:50:54;;;;;;;0.70;0.70;;;;;;;;;;5088405;28;20201;-66
2022/02/04 12:53:27;;;;;;;0.70;0.70;;;;;;;;;;5083212;28;20606;-65
2022/02/04 12:56:07;;;;;;;0.70;0.70;;;;;;;;;;5072973;28;20227;-67
2022/02/04 12:59:35;;;;;;;1.20;0.90;;;;;;;;;;5076318;28;20243;-66
2022/02/04 13:07:58;;;;;;;3.37;0.80;;;;;;;;;;5073223;28;20193;-66
2022/02/04 13:10:18;;;;;;;1.23;0.90;;;;;;;;;;5072728;28;20203;-66
2022/02/04 13:12:57;;;;;;;1.17;1.00;;;;;;;;;;5072630;28;20197;-66
2022/02/04 13:15:31;;;;;;;1.63;0.80;;;;;;;;;;5070889;28;20222;-64
2022/02/04 13:18:09;;;;;;;2.30;1.10;;;;;;;;;;5095544;28;20637;-67
2022/02/04 13:20:46;;;;;;;1.10;1.00;;;;;;;;;;5085650;28;20220;-65
2022/02/04 13:23:16;;;;;;;1.27;1.10;;;;;;;;;;5090222;28;20227;-68
2022/02/04 13:25:49;;;;;;;3.43;1.20;;;;;;;;;;5088920;28;20201;-67
2022/02/04 13:28:24;;;;;;;1.03;1.00;;;;;;;;;;5077315;28;20216;-67
2022/02/04 13:31:02;;;;;;;2.27;1.27;;;;;;;;;;5089164;28;20243;-67
2022/02/04 13:33:39;;;;;;;2.07;1.30;;;;;;;;;;5065713;28;20208;-67
2022/02/04 13:42:23;;;;;;;1.60;1.00;;;;;;;;;;5090325;28;20192;-67
2022/02/04 13:45:13;;;;;;;2.57;1.40;;;;;;;;;;5085362;28;20296;-67
2022/02/04 13:47:58;;;;;;;1.20;1.10;;;;;;;;;;5090127;28;20321;-68
2022/02/04 13:53:22;;;;;;;1.20;1.10;;;;;;;;;;5075354;28;20367;-67
2022/02/04 13:56:07;;;;;;;1.47;1.20;;;;;;;;;;5084846;28;20192;-67
2022/02/04 13:58:54;;;;;;;1.57;1.30;;;;;;;;;;5091687;28;20223;-67
2022/02/04 14:01:46;;;;;;;1.20;1.10;;;;;;;;;;5081002;28;20213;-65
2022/02/04 14:04:20;;;;;;;1.43;1.33;;;;;;;;;;5081667;28;20661;-66
2022/02/04 14:07:07;;;;;;;2.70;1.10;;;;;;;;;;5081185;28;20288;-66
2022/02/04 14:09:46;;;;;;;1.33;1.10;;;;;;;;;;5091770;28;20878;-63
2022/02/04 14:12:20;;;;;;;1.43;1.17;;;;;;;;;;5084639;28;20205;-67
2022/02/04 14:15:05;;;;;;;1.33;1.00;;;;;;;;;;5088320;28;20209;-66
2022/02/04 14:17:35;;;;;;;1.30;1.00;;;;;;;;;;5080951;28;20285;-68
2022/02/04 14:20:06;;;;;;;1.30;1.00;;;;;;;;;;5084648;28;20205;-68
2022/02/04 14:22:38;;;;;;;1.40;1.30;;;;;;;;;;5070229;28;20205;-67
2022/02/04 14:25:06;;;;;;;1.03;1.00;;;;;;;;;;5072292;28;20255;-67
2022/02/04 14:27:34;;;;;;;3.60;1.20;;;;;;;;;;5087828;28;20212;-67
2022/02/04 14:30:16;;;;;;;1.97;1.40;;;;;;;;;;5084063;28;20206;-67
2022/02/04 14:32:56;;;;;;;1.37;1.10;;;;;;;;;;5086461;28;20197;-66
2022/02/04 15:01:35;;;;;;;1.50;1.13;;;;;;;;;;5089950;28;20253;-66
2022/02/04 15:03:42;;;;;;;2.40;1.10;;;;;;;;;;5077562;28;20220;-66
2022/02/04 15:09:07;;;;;;;1.70;1.20;;;;;;;;;;5082086;28;20220;-66
2022/02/04 15:11:37;;;;;;;1.33;1.10;;;;;;;;;;5069331;28;20196;-67
2022/02/04 15:14:10;;;;;;;3.03;1.23;;;;;;;;;;5084137;28;20197;-66
2022/02/04 15:16:54;;;;;;;1.23;1.10;;;;;;;;;;5087472;28;20291;-67
2022/02/04 15:19:26;;;;;;;1.50;1.30;;;;;;;;;;5078976;28;20207;-68
2022/02/04 15:22:01;;;;;;;1.10;1.00;;;;;;;;;;5087329;28;20219;-67
2022/02/04 15:24:34;;;;;;;1.20;1.10;;;;;;;;;;5087020;28;20208;-67
2022/02/04 15:27:04;;;;;;;2.13;1.00;;;;;;;;;;5085637;28;20242;-65
2022/02/04 15:29:42;;;;;;;1.33;1.00;;;;;;;;;;5083917;28;20216;-66
2022/02/04 15:32:14;;;;;;;1.73;1.10;;;;;;;;;;5083287;28;20571;-71
2022/02/04 15:34:46;;;;;;;9.00;1.53;;;;;;;;;;5077558;28;20196;-71
2022/02/04 15:37:20;;;;;;;1.87;0.90;;;;;;;;;;5080637;28;20216;-67
2022/02/04 15:39:51;;;;;;;2.57;1.07;;;;;;;;;;5080956;28;20280;-66
2022/02/04 15:42:24;;;;;;;4.13;1.03;;;;;;;;;;5088176;28;20650;-69
2022/02/04 15:45:13;;;;;;;5.10;1.03;;;;;;;;;;5076408;28;20248;-69
2022/02/04 15:53:58;;;;;;;1.70;0.60;;;;;;;;;;5079898;28;20687;-66
2022/02/04 15:56:46;;;;;;;1.83;0.73;;;;;;;;;;5080926;28;20205;-72
2022/02/04 16:04:43;;;;;;;1.10;0.90;;;;;;;;;;5081655;28;20281;-65
2022/02/04 16:07:20;;;;;;;1.57;0.87;;;;;;;;;;5073182;28;20218;-66
2022/02/04 16:10:04;;;;;;;1.80;0.90;;;;;;;;;;5080703;28;20640;-66
2022/02/04 16:12:51;;;;;;;1.13;0.73;;;;;;;;;;5079000;28;20604;-65
2022/02/04 16:15:52;;;;;;;0.90;0.70;;;;;;;;;;5080462;28;20208;-64
2022/02/04 16:18:30;;;;;;;1.00;0.83;;;;;;;;;;5083384;28;20211;-64
2022/02/04 16:21:19;;;;;;;1.30;0.70;;;;;;;;;;5087725;28;20204;-67
2022/02/04 16:24:18;;;;;;;2.50;0.87;;;;;;;;;;5081104;28;20232;-65
2022/02/04 16:28:36;;;;;;;2.23;0.90;;;;;;;;;;5092692;28;20284;-65
2022/02/04 16:29:46;;;;;;;1.20;0.70;;;;;;;;;;5072651;28;20236;-67
2022/02/04 16:32:17;;;;;;;1.67;0.67;;;;;;;;;;5095486;28;20630;-67
2022/02/04 16:34:55;;;;;;;2.83;0.80;;;;;;;;;;5087397;28;20220;-67
2022/02/04 16:38:04;;;;;;;0.90;0.60;;;;;;;;;;5091113;28;20221;-68
2022/02/04 16:41:11;;;;;;;1.97;0.70;;;;;;;;;;5099791;28;20185;-68
2022/02/04 16:43:50;;;;;;;1.43;0.60;;;;;;;;;;5087613;28;20227;-70
2022/02/04 16:46:23;;;;;;;0.70;0.57;;;;;;;;;;5092521;28;20197;-67
2022/02/04 16:48:56;;;;;;;1.40;0.50;;;;;;;;;;5088980;28;20215;-68
2022/02/04 16:51:26;;;;;;;0.60;0.50;;;;;;;;;;5080070;28;20220;-66
2022/02/04 16:53:56;;;;;;;1.53;0.70;;;;;;;;;;5085188;28;20282;-68
2022/02/04 16:56:37;;;;;;;3.37;0.70;;;;;;;;;;5087051;28;20224;-70
2022/02/04 16:59:08;;;;;;;0.50;0.40;;;;;;;;;;5087540;28;20565;-68
2022/02/04 17:01:40;;;;;;;0.70;0.53;;;;;;;;;;5089734;28;20197;-66
2022/02/04 17:04:10;;;;;;;0.83;0.53;;;;;;;;;;5070849;28;20231;-64
2022/02/04 17:06:46;;;;;;;1.33;0.73;;;;;;;;;;5087637;28;20223;-65
2022/02/04 17:09:28;;;;;;;1.97;0.87;;;;;;;;;;5085199;28;20212;-64
2022/02/04 17:12:06;;;;;;;0.97;0.70;;;;;;;;;;5068002;28;20508;-64
2022/02/04 17:14:41;;;;;;;0.80;0.67;;;;;;;;;;5083612;28;20193;-64
2022/02/04 17:17:13;;;;;;;0.90;0.70;;;;;;;;;;5087418;28;20236;-64
2022/02/04 17:20:03;;;;;;;1.07;0.80;;;;;;;;;;5081571;28;20220;-64
2022/02/04 17:22:37;;;;;;;0.80;0.60;;;;;;;;;;5087809;28;20213;-64
2022/02/04 17:25:10;;;;;;;1.17;0.70;;;;;;;;;;5089155;28;20225;-64
2022/02/04 17:27:46;;;;;;;1.73;1.00;;;;;;;;;;5085043;28;20185;-64
2022/02/04 17:30:18;;;;;;;1.13;0.80;;;;;;;;;;5070143;28;20843;-64
2022/02/04 17:32:49;;;;;;;1.77;0.80;;;;;;;;;;5068137;28;20717;-64
2022/02/04 17:35:24;;;;;;;2.23;0.90;;;;;;;;;;5085301;28;20749;-64
2022/02/04 17:37:56;;;;;;;1.60;0.80;;;;;;;;;;5092370;28;20200;-64
2022/02/04 17:40:28;;;;;;;0.93;0.73;;;;;;;;;;5086615;28;20592;-64
2022/02/04 17:42:59;;;;;;;1.27;0.80;;;;;;;;;;5089674;28;20346;-64
2022/02/04 17:45:29;;;;;;;1.43;0.90;;;;;;;;;;5081825;28;20259;-64
2022/02/04 17:48:06;;;;;;;1.13;0.70;;;;;;;;;;5089063;28;20633;-64
2022/02/04 17:53:32;;;;;;;0.90;0.70;;;;;;;;;;5081236;28;20197;-64
2022/02/04 17:56:17;;;;;;;1.10;0.90;;;;;;;;;;5085924;28;20213;-64
2022/02/04 17:59:02;;;;;;;1.67;1.10;;;;;;;;;;5088939;28;20649;-64
2022/02/04 18:01:52;;;;;;;1.40;1.00;;;;;;;;;;5084444;28;20201;-64
2022/02/04 18:07:22;;;;;;;1.50;0.97;;;;;;;;;;5075603;28;20202;-64
2022/02/04 18:09:54;;;;;;;1.33;0.80;;;;;;;;;;5085289;28;20197;-65
2022/02/04 18:12:28;;;;;;;1.40;0.70;;;;;;;;;;5086369;28;20204;-64
2022/02/04 18:14:58;;;;;;;1.43;0.87;;;;;;;;;;5074870;28;20223;-65
2022/02/04 18:17:29;;;;;;;1.93;1.00;;;;;;;;;;5083775;28;20224;-65
2022/02/04 18:19:58;;;;;;;1.87;0.80;;;;;;;;;;5051496;28;20205;-65
2022/02/04 18:22:30;;;;;;;2.47;0.90;;;;;;;;;;5087808;28;20626;-65
2022/02/04 18:25:01;;;;;;;1.57;0.90;;;;;;;;;;5084303;28;20236;-65
2022/02/04 18:27:32;;;;;;;1.60;0.70;;;;;;;;;;5085247;28;20216;-65
2022/02/04 18:30:05;;;;;;;1.67;0.73;;;;;;;;;;5084939;28;20249;-64
2022/02/04 18:32:36;;;;;;;0.90;0.77;;;;;;;;;;5065117;28;20220;-65
2022/02/04 18:35:07;;;;;;;1.17;0.80;;;;;;;;;;5081429;28;20638;-65
2022/02/04 18:37:42;;;;;;;2.63;1.10;;;;;;;;;;5078524;28;20212;-65
2022/02/04 18:46:01;;;;;;;2.27;0.90;;;;;;;;;;5086748;28;20224;-65
2022/02/04 18:48:51;;;;;;;1.57;0.80;;;;;;;;;;5090185;28;20201;-64
2022/02/04 18:54:29;;;;;;;0.90;0.73;;;;;;;;;;5084990;28;20225;-63
2022/02/04 18:59:40;;;;;;;1.60;1.10;;;;;;;;;;5080211;28;20219;-64
2022/02/04 19:02:15;;;;;;;1.60;0.70;;;;;;;;;;5078115;28;20220;-64
2022/02/04 19:05:05;;;;;;;1.57;0.80;;;;;;;;;;5078545;28;20633;-65
2022/02/04 19:07:40;;;;;;;1.70;1.03;;;;;;;;;;5079314;28;20223;-65
2022/02/04 19:10:24;;;;;;;1.73;0.90;;;;;;;;;;5082377;28;20201;-64
2022/02/04 19:13:12;;;;;;;1.20;1.00;;;;;;;;;;5079910;28;20193;-64
2022/02/04 19:18:56;;;;;;;2.43;0.90;;;;;;;;;;5078998;28;20229;-66
2022/02/04 19:21:42;;;;;;;1.97;0.90;;;;;;;;;;5065748;28;20221;-65
2022/02/04 19:24:24;;;;;;;1.57;0.70;;;;;;;;;;5084397;28;20197;-63
2022/02/04 19:26:53;;;;;;;2.63;0.73;;;;;;;;;;5076272;28;20200;-63
2022/02/04 19:29:24;;;;;;;1.60;1.00;;;;;;;;;;5078982;28;20651;-64
2022/02/04 19:32:01;;;;;;;1.80;0.97;;;;;;;;;;5063776;28;20221;-63
2022/02/04 19:34:33;;;;;;;1.50;0.83;;;;;;;;;;5083263;28;20549;-63
2022/02/04 19:37:07;;;;;;;1.37;0.90;;;;;;;;;;5078563;28;20657;-63
2022/02/04 19:39:38;;;;;;;1.87;1.00;;;;;;;;;;5083130;28;20247;-63
2022/02/04 19:42:29;;;;;;;1.63;0.80;;;;;;;;;;5073028;28;20224;-64
2022/02/04 19:45:08;;;;;;;2.63;1.20;;;;;;;;;;5078920;28;20224;-64
2022/02/04 19:48:08;;;;;;;1.93;0.97;;;;;;;;;;5083196;28;20209;-63
2022/02/04 19:50:49;;;;;;;1.43;1.07;;;;;;;;;;5075351;28;20196;-64
2022/02/04 19:54:34;;;;;;;2.40;1.10;;;;;;;;;;5082716;28;20874;-64
2022/02/04 20:13:09;;;;;;;2.53;1.20;;;;;;;;;;5067588;28;20216;-65
2022/02/04 20:14:39;;;;;;;2.20;0.83;;;;;;;;;;5078161;28;20198;-65
2022/02/04 20:25:08;;;;;;;1.97;1.10;;;;;;;;;;5053447;28;20733;-64
2022/02/04 20:27:41;;;;;;;2.10;1.13;;;;;;;;;;5058038;28;20225;-64
2022/02/04 20:30:11;;;;;;;1.33;1.00;;;;;;;;;;5057709;28;20240;-64
2022/02/04 20:32:40;;;;;;;2.03;1.67;;;;;;;;;;5043503;28;20236;-64
2022/02/04 20:35:08;;;;;;;2.10;1.00;;;;;;;;;;5065210;28;20208;-64
2022/02/04 20:37:51;;;;;;;2.63;1.20;;;;;;;;;;5071566;28;20190;-64
2022/02/04 20:42:59;;;;;;;1.70;1.00;;;;;;;;;;5081512;28;20971;-64
2022/02/04 20:45:43;;;;;;;1.80;1.53;;;;;;;;;;5078607;28;20727;-63
2022/02/04 20:48:16;;;;;;;2.90;1.37;;;;;;;;;;5070146;28;20553;-63
2022/02/04 20:50:46;;;;;;;3.83;1.50;;;;;;;;;;5079721;28;20630;-65
2022/02/04 20:53:17;;;;;;;2.27;1.30;;;;;;;;;;5070816;28;20189;-65
2022/02/04 20:55:51;;;;;;;1.93;1.20;;;;;;;;;;5078664;28;20237;-65
2022/02/04 20:58:27;;;;;;;1.80;1.20;;;;;;;;;;5059601;28;20200;-65
2022/02/04 21:00:57;;;;;;;1.87;1.20;;;;;;;;;;5082016;28;20200;-65
2022/02/04 21:03:35;;;;;;;1.77;1.10;;;;;;;;;;5078831;28;20208;-65
2022/02/04 21:06:15;;;;;;;3.30;0.93;;;;;;;;;;5079181;28;20282;-65
2022/02/04 21:17:20;;;;;;;1.63;1.17;;;;;;;;;;5062482;28;20698;-66
2022/02/04 21:19:54;;;;;;;2.50;1.17;;;;;;;;;;5065347;28;20197;-66
2022/02/04 21:22:24;;;;;;;2.50;1.10;;;;;;;;;;5070081;28;20209;-66
2022/02/04 21:24:51;;;;;;;1.30;1.07;;;;;;;;;;5070336;28;20223;-65
2022/02/04 21:27:21;;;;;;;1.93;0.93;;;;;;;;;;5081290;28;20606;-65
2022/02/04 21:29:54;;;;;;;1.67;1.10;;;;;;;;;;5084544;28;20747;-65
2022/02/04 21:32:25;;;;;;;1.63;1.20;;;;;;;;;;5078701;28;20182;-65
2022/02/04 21:37:40;;;;;;;1.87;1.17;;;;;;;;;;5079817;28;20515;-65
2022/02/04 21:40:11;;;;;;;2.37;1.30;;;;;;;;;;5087657;28;20204;-65
2022/02/04 21:42:40;;;;;;;2.50;1.10;;;;;;;;;;5065764;28;20197;-65
2022/02/04 21:45:08;;;;;;;2.50;1.10;;;;;;;;;;5031573;28;20359;-65
2022/02/04 21:47:46;;;;;;;1.40;0.90;;;;;;;;;;5084600;28;20537;-65
2022/02/04 21:50:18;;;;;;;3.50;1.20;;;;;;;;;;5083945;28;20823;-65
2022/02/04 21:52:50;;;;;;;4.37;1.20;;;;;;;;;;5067702;28;20201;-65
2022/02/04 21:55:23;;;;;;;1.30;1.00;;;;;;;;;;5083866;28;20233;-64
2022/02/04 21:57:53;;;;;;;1.77;1.20;;;;;;;;;;5058146;28;20809;-65
2022/02/04 22:00:25;;;;;;;3.47;1.27;;;;;;;;;;5062634;28;20284;-65
2022/02/04 22:02:55;;;;;;;2.50;1.30;;;;;;;;;;5056798;28;20194;-65
2022/02/04 22:05:25;;;;;;;1.83;1.00;;;;;;;;;;5063671;28;20222;-65
2022/02/04 22:08:02;;;;;;;1.10;0.90;;;;;;;;;;5067501;28;20190;-65